sensor_id;sensor_type;location;lat;lon;timestamp;P1;durP1;ratioP1;P2;durP2;ratioP2
73170;SDS011;61381;50.118;19.962;2023-09-08T00:01:36;23.85;;;16.25;;
73170;SDS011;61381;50.118;19.962;2023-09-08T00:06:37;27.08;;;16.48;;
73170;SDS011;61381;50.118;19.962;2023-09-08T00:11:38;21.88;;;14.25;;
73170;SDS011;61381;50.118;19.962;2023-09-08T00:16:40;19.00;;;12.77;;
73170;SDS011;61381;50.118;19.962;2023-09-08T00:21:41;19.83;;;12.05;;
73170;SDS011;61381;50.118;19.962;2023-09-08T00:26:42;22.13;;;14.55;;
73170;SDS011;61381;50.118;19.962;2023-09-08T00:31:44;22.90;;;14.25;;
73170;SDS011;61381;50.118;19.962;2023-09-08T00:36:45;21.70;;;14.45;;
73170;SDS011;61381;50.118;19.962;2023-09-08T00:41:46;21.23;;;13.80;;
73170;SDS011;61381;50.118;19.962;2023-09-08T00:46:48;21.83;;;14.15;;
73170;SDS011;61381;50.118;19.962;2023-09-08T00:51:49;19.20;;;13.05;;
73170;SDS011;61381;50.118;19.962;2023-09-08T01:01:57;21.00;;;13.63;;
73170;SDS011;61381;50.118;19.962;2023-09-08T01:06:58;25.80;;;16.10;;
73170;SDS011;61381;50.118;19.962;2023-09-08T01:11:59;25.80;;;15.23;;
73170;SDS011;61381;50.118;19.962;2023-09-08T01:17:04;22.48;;;15.18;;
73170;SDS011;61381;50.118;19.962;2023-09-08T01:27:25;23.58;;;15.55;;
73170;SDS011;61381;50.118;19.962;2023-09-08T01:32:28;21.58;;;14.50;;
73170;SDS011;61381;50.118;19.962;2023-09-08T01:37:30;24.70;;;15.32;;
73170;SDS011;61381;50.118;19.962;2023-09-08T01:42:32;24.90;;;15.52;;
73170;SDS011;61381;50.118;19.962;2023-09-08T01:47:33;21.10;;;13.73;;
73170;SDS011;61381;50.118;19.962;2023-09-08T01:52:35;19.40;;;11.75;;
73170;SDS011;61381;50.118;19.962;2023-09-08T01:57:37;25.42;;;14.65;;
73170;SDS011;61381;50.118;19.962;2023-09-08T02:02:38;25.42;;;15.85;;
73170;SDS011;61381;50.118;19.962;2023-09-08T02:07:39;22.92;;;13.68;;
73170;SDS011;61381;50.118;19.962;2023-09-08T02:12:41;21.02;;;12.95;;
73170;SDS011;61381;50.118;19.962;2023-09-08T02:17:42;20.98;;;13.55;;
73170;SDS011;61381;50.118;19.962;2023-09-08T02:22:43;21.73;;;14.27;;
73170;SDS011;61381;50.118;19.962;2023-09-08T02:27:45;27.02;;;16.60;;
73170;SDS011;61381;50.118;19.962;2023-09-08T02:32:46;33.65;;;19.65;;
73170;SDS011;61381;50.118;19.962;2023-09-08T02:37:47;33.40;;;19.17;;
73170;SDS011;61381;50.118;19.962;2023-09-08T02:42:49;33.38;;;19.48;;
73170;SDS011;61381;50.118;19.962;2023-09-08T02:47:50;34.78;;;19.80;;
73170;SDS011;61381;50.118;19.962;2023-09-08T02:52:51;32.25;;;18.75;;
73170;SDS011;61381;50.118;19.962;2023-09-08T02:57:54;32.28;;;19.52;;
73170;SDS011;61381;50.118;19.962;2023-09-08T03:02:54;29.67;;;18.27;;
73170;SDS011;61381;50.118;19.962;2023-09-08T03:07:55;25.58;;;14.70;;
73170;SDS011;61381;50.118;19.962;2023-09-08T03:12:58;23.08;;;15.25;;
73170;SDS011;61381;50.118;19.962;2023-09-08T03:17:59;23.85;;;14.55;;
73170;SDS011;61381;50.118;19.962;2023-09-08T03:22:59;27.33;;;17.58;;
73170;SDS011;61381;50.118;19.962;2023-09-08T03:28:02;24.35;;;15.60;;
73170;SDS011;61381;50.118;19.962;2023-09-08T03:33:03;25.15;;;15.90;;
73170;SDS011;61381;50.118;19.962;2023-09-08T03:38:04;23.95;;;14.73;;
73170;SDS011;61381;50.118;19.962;2023-09-08T03:43:06;27.77;;;15.60;;
73170;SDS011;61381;50.118;19.962;2023-09-08T03:48:07;32.67;;;16.42;;
73170;SDS011;61381;50.118;19.962;2023-09-08T03:53:08;28.75;;;16.38;;
73170;SDS011;61381;50.118;19.962;2023-09-08T03:58:10;31.98;;;18.85;;
73170;SDS011;61381;50.118;19.962;2023-09-08T04:03:11;38.97;;;21.25;;
73170;SDS011;61381;50.118;19.962;2023-09-08T04:08:12;39.63;;;21.17;;
73170;SDS011;61381;50.118;19.962;2023-09-08T04:13:14;27.92;;;17.83;;
73170;SDS011;61381;50.118;19.962;2023-09-08T04:18:15;33.60;;;19.48;;
73170;SDS011;61381;50.118;19.962;2023-09-08T04:23:16;40.08;;;20.73;;
73170;SDS011;61381;50.118;19.962;2023-09-08T04:28:18;40.70;;;21.75;;
73170;SDS011;61381;50.118;19.962;2023-09-08T04:33:19;47.42;;;25.92;;
73170;SDS011;61381;50.118;19.962;2023-09-08T04:38:20;58.55;;;31.67;;
73170;SDS011;61381;50.118;19.962;2023-09-08T04:43:22;48.83;;;30.17;;
73170;SDS011;61381;50.118;19.962;2023-09-08T04:48:23;35.67;;;22.05;;
73170;SDS011;61381;50.118;19.962;2023-09-08T04:53:24;36.80;;;22.05;;
73170;SDS011;61381;50.118;19.962;2023-09-08T04:58:26;34.95;;;21.17;;
73170;SDS011;61381;50.118;19.962;2023-09-08T05:03:27;35.85;;;19.25;;
73170;SDS011;61381;50.118;19.962;2023-09-08T05:08:27;34.42;;;19.20;;
73170;SDS011;61381;50.118;19.962;2023-09-08T05:13:30;26.85;;;18.50;;
73170;SDS011;61381;50.118;19.962;2023-09-08T05:18:30;26.73;;;16.73;;
73170;SDS011;61381;50.118;19.962;2023-09-08T05:23:33;20.75;;;14.48;;
73170;SDS011;61381;50.118;19.962;2023-09-08T05:28:35;18.58;;;12.75;;
73170;SDS011;61381;50.118;19.962;2023-09-08T05:33:36;18.65;;;13.73;;
73170;SDS011;61381;50.118;19.962;2023-09-08T05:38:37;20.92;;;13.73;;
73170;SDS011;61381;50.118;19.962;2023-09-08T05:43:39;23.13;;;14.75;;
73170;SDS011;61381;50.118;19.962;2023-09-08T05:48:40;22.77;;;14.98;;
73170;SDS011;61381;50.118;19.962;2023-09-08T05:53:41;23.30;;;15.93;;
73170;SDS011;61381;50.118;19.962;2023-09-08T05:58:43;25.35;;;15.88;;
73170;SDS011;61381;50.118;19.962;2023-09-08T06:03:44;24.83;;;15.05;;
73170;SDS011;61381;50.118;19.962;2023-09-08T06:08:45;25.13;;;15.65;;
73170;SDS011;61381;50.118;19.962;2023-09-08T06:13:47;23.48;;;15.57;;
73170;SDS011;61381;50.118;19.962;2023-09-08T06:18:48;23.85;;;16.23;;
73170;SDS011;61381;50.118;19.962;2023-09-08T06:23:49;25.48;;;15.77;;
73170;SDS011;61381;50.118;19.962;2023-09-08T06:28:51;29.35;;;16.27;;
73170;SDS011;61381;50.118;19.962;2023-09-08T06:33:52;24.30;;;16.33;;
73170;SDS011;61381;50.118;19.962;2023-09-08T06:38:52;26.38;;;15.45;;
73170;SDS011;61381;50.118;19.962;2023-09-08T06:43:55;23.10;;;15.65;;
73170;SDS011;61381;50.118;19.962;2023-09-08T06:48:56;24.33;;;16.25;;
73170;SDS011;61381;50.118;19.962;2023-09-08T06:53:57;26.98;;;14.50;;
73170;SDS011;61381;50.118;19.962;2023-09-08T06:58:59;21.95;;;14.45;;
73170;SDS011;61381;50.118;19.962;2023-09-08T07:04:00;22.85;;;15.43;;
73170;SDS011;61381;50.118;19.962;2023-09-08T07:09:01;25.38;;;15.80;;
73170;SDS011;61381;50.118;19.962;2023-09-08T07:14:03;25.30;;;16.10;;
73170;SDS011;61381;50.118;19.962;2023-09-08T07:19:04;23.75;;;16.02;;
73170;SDS011;61381;50.118;19.962;2023-09-08T07:24:06;21.63;;;15.15;;
73170;SDS011;61381;50.118;19.962;2023-09-08T07:29:08;21.88;;;13.90;;
73170;SDS011;61381;50.118;19.962;2023-09-08T07:34:09;24.25;;;16.15;;
73170;SDS011;61381;50.118;19.962;2023-09-08T07:39:14;24.38;;;14.73;;
73170;SDS011;61381;50.118;19.962;2023-09-08T07:44:23;21.75;;;14.10;;
73170;SDS011;61381;50.118;19.962;2023-09-08T07:49:34;21.55;;;12.95;;
73170;SDS011;61381;50.118;19.962;2023-09-08T07:54:35;21.45;;;14.10;;
73170;SDS011;61381;50.118;19.962;2023-09-08T07:59:46;18.30;;;12.73;;
73170;SDS011;61381;50.118;19.962;2023-09-08T08:04:53;17.40;;;12.80;;
73170;SDS011;61381;50.118;19.962;2023-09-08T08:10:11;15.68;;;11.80;;
73170;SDS011;61381;50.118;19.962;2023-09-08T08:15:18;17.48;;;11.25;;
73170;SDS011;61381;50.118;19.962;2023-09-08T08:20:19;16.65;;;11.43;;
73170;SDS011;61381;50.118;19.962;2023-09-08T08:25:20;14.60;;;10.20;;
73170;SDS011;61381;50.118;19.962;2023-09-08T08:30:22;16.08;;;10.48;;
73170;SDS011;61381;50.118;19.962;2023-09-08T08:35:23;16.23;;;11.32;;
73170;SDS011;61381;50.118;19.962;2023-09-08T08:40:24;17.15;;;10.15;;
73170;SDS011;61381;50.118;19.962;2023-09-08T08:45:27;19.58;;;12.15;;
73170;SDS011;61381;50.118;19.962;2023-09-08T08:50:29;16.02;;;10.85;;
73170;SDS011;61381;50.118;19.962;2023-09-08T08:55:32;15.23;;;10.20;;
73170;SDS011;61381;50.118;19.962;2023-09-08T09:00:36;17.75;;;10.52;;
73170;SDS011;61381;50.118;19.962;2023-09-08T09:05:37;13.55;;;10.05;;
73170;SDS011;61381;50.118;19.962;2023-09-08T09:10:38;14.05;;;9.90;;
73170;SDS011;61381;50.118;19.962;2023-09-08T09:15:40;13.93;;;9.10;;
73170;SDS011;61381;50.118;19.962;2023-09-08T09:20:52;12.25;;;9.60;;
73170;SDS011;61381;50.118;19.962;2023-09-08T09:25:54;14.30;;;9.45;;
73170;SDS011;61381;50.118;19.962;2023-09-08T09:30:56;13.77;;;9.23;;
73170;SDS011;61381;50.118;19.962;2023-09-08T09:35:57;10.38;;;8.00;;
73170;SDS011;61381;50.118;19.962;2023-09-08T09:40:58;9.07;;;7.75;;
73170;SDS011;61381;50.118;19.962;2023-09-08T09:46:00;9.30;;;5.95;;
73170;SDS011;61381;50.118;19.962;2023-09-08T09:51:14;9.32;;;5.95;;
73170;SDS011;61381;50.118;19.962;2023-09-08T09:56:16;8.90;;;5.93;;
73170;SDS011;61381;50.118;19.962;2023-09-08T10:01:19;7.85;;;5.85;;
73170;SDS011;61381;50.118;19.962;2023-09-08T10:06:22;9.25;;;6.85;;
73170;SDS011;61381;50.118;19.962;2023-09-08T10:11:24;12.48;;;6.57;;
73170;SDS011;61381;50.118;19.962;2023-09-08T10:16:31;12.60;;;6.60;;
73170;SDS011;61381;50.118;19.962;2023-09-08T10:21:36;9.50;;;6.97;;
73170;SDS011;61381;50.118;19.962;2023-09-08T10:26:42;8.45;;;6.05;;
73170;SDS011;61381;50.118;19.962;2023-09-08T10:31:47;9.70;;;6.00;;
73170;SDS011;61381;50.118;19.962;2023-09-08T10:36:48;9.70;;;5.97;;
73170;SDS011;61381;50.118;19.962;2023-09-08T10:41:49;17.55;;;11.23;;
73170;SDS011;61381;50.118;19.962;2023-09-08T10:46:51;11.98;;;7.32;;
73170;SDS011;61381;50.118;19.962;2023-09-08T10:51:52;7.75;;;5.45;;
73170;SDS011;61381;50.118;19.962;2023-09-08T10:57:10;8.00;;;5.57;;
73170;SDS011;61381;50.118;19.962;2023-09-08T11:07:37;7.80;;;5.22;;
73170;SDS011;61381;50.118;19.962;2023-09-08T11:12:38;8.07;;;5.10;;
73170;SDS011;61381;50.118;19.962;2023-09-08T11:17:40;7.32;;;5.47;;
73170;SDS011;61381;50.118;19.962;2023-09-08T11:22:41;8.60;;;5.13;;
73170;SDS011;61381;50.118;19.962;2023-09-08T11:27:44;7.05;;;5.45;;
73170;SDS011;61381;50.118;19.962;2023-09-08T11:32:46;7.20;;;5.25;;
73170;SDS011;61381;50.118;19.962;2023-09-08T11:37:47;7.47;;;5.78;;
73170;SDS011;61381;50.118;19.962;2023-09-08T11:42:48;8.25;;;6.53;;
73170;SDS011;61381;50.118;19.962;2023-09-08T11:47:52;7.03;;;5.65;;
73170;SDS011;61381;50.118;19.962;2023-09-08T11:52:53;8.30;;;6.43;;
73170;SDS011;61381;50.118;19.962;2023-09-08T11:57:55;9.70;;;6.40;;
73170;SDS011;61381;50.118;19.962;2023-09-08T12:02:58;10.70;;;7.40;;
73170;SDS011;61381;50.118;19.962;2023-09-08T12:08:10;8.45;;;5.90;;
73170;SDS011;61381;50.118;19.962;2023-09-08T12:13:11;10.57;;;6.07;;
73170;SDS011;61381;50.118;19.962;2023-09-08T12:18:13;11.77;;;6.00;;
73170;SDS011;61381;50.118;19.962;2023-09-08T12:23:15;9.75;;;6.07;;
73170;SDS011;61381;50.118;19.962;2023-09-08T12:28:18;9.18;;;6.45;;
73170;SDS011;61381;50.118;19.962;2023-09-08T12:33:21;7.50;;;5.88;;
73170;SDS011;61381;50.118;19.962;2023-09-08T12:38:22;10.68;;;5.35;;
73170;SDS011;61381;50.118;19.962;2023-09-08T12:43:23;9.13;;;5.85;;
73170;SDS011;61381;50.118;19.962;2023-09-08T12:48:25;7.88;;;5.25;;
73170;SDS011;61381;50.118;19.962;2023-09-08T12:53:26;7.90;;;5.38;;
73170;SDS011;61381;50.118;19.962;2023-09-08T12:58:27;11.40;;;5.60;;
73170;SDS011;61381;50.118;19.962;2023-09-08T13:03:29;6.30;;;4.85;;
73170;SDS011;61381;50.118;19.962;2023-09-08T13:08:31;7.95;;;5.30;;
73170;SDS011;61381;50.118;19.962;2023-09-08T13:13:31;7.90;;;5.63;;
73170;SDS011;61381;50.118;19.962;2023-09-08T13:18:34;7.43;;;5.57;;
73170;SDS011;61381;50.118;19.962;2023-09-08T13:23:34;9.00;;;5.68;;
73170;SDS011;61381;50.118;19.962;2023-09-08T13:28:35;7.15;;;5.10;;
73170;SDS011;61381;50.118;19.962;2023-09-08T13:33:38;7.63;;;5.50;;
73170;SDS011;61381;50.118;19.962;2023-09-08T13:38:38;6.93;;;5.82;;
73170;SDS011;61381;50.118;19.962;2023-09-08T13:43:39;7.93;;;5.70;;
73170;SDS011;61381;50.118;19.962;2023-09-08T13:48:41;9.63;;;5.65;;
73170;SDS011;61381;50.118;19.962;2023-09-08T13:53:42;7.00;;;4.97;;
73170;SDS011;61381;50.118;19.962;2023-09-08T13:58:46;7.97;;;5.30;;
73170;SDS011;61381;50.118;19.962;2023-09-08T14:03:48;8.43;;;5.35;;
73170;SDS011;61381;50.118;19.962;2023-09-08T14:08:49;6.82;;;5.60;;
73170;SDS011;61381;50.118;19.962;2023-09-08T14:13:50;8.15;;;5.63;;
73170;SDS011;61381;50.118;19.962;2023-09-08T14:18:52;8.65;;;5.20;;
73170;SDS011;61381;50.118;19.962;2023-09-08T14:23:53;6.72;;;5.03;;
73170;SDS011;61381;50.118;19.962;2023-09-08T14:28:54;6.43;;;5.43;;
73170;SDS011;61381;50.118;19.962;2023-09-08T14:33:57;8.40;;;5.28;;
73170;SDS011;61381;50.118;19.962;2023-09-08T14:38:58;8.40;;;5.78;;
73170;SDS011;61381;50.118;19.962;2023-09-08T14:43:59;7.30;;;5.32;;
73170;SDS011;61381;50.118;19.962;2023-09-08T14:49:01;8.35;;;6.03;;
73170;SDS011;61381;50.118;19.962;2023-09-08T14:54:02;6.45;;;5.40;;
73170;SDS011;61381;50.118;19.962;2023-09-08T14:59:03;7.60;;;5.43;;
73170;SDS011;61381;50.118;19.962;2023-09-08T15:04:06;6.60;;;5.35;;
73170;SDS011;61381;50.118;19.962;2023-09-08T15:09:07;8.23;;;5.18;;
73170;SDS011;61381;50.118;19.962;2023-09-08T15:14:08;7.93;;;5.45;;
73170;SDS011;61381;50.118;19.962;2023-09-08T15:19:11;7.55;;;5.20;;
73170;SDS011;61381;50.118;19.962;2023-09-08T15:24:12;7.53;;;5.20;;
73170;SDS011;61381;50.118;19.962;2023-09-08T15:29:13;8.07;;;5.38;;
73170;SDS011;61381;50.118;19.962;2023-09-08T15:34:15;6.47;;;4.90;;
73170;SDS011;61381;50.118;19.962;2023-09-08T15:39:16;7.22;;;5.00;;
73170;SDS011;61381;50.118;19.962;2023-09-08T15:44:17;6.05;;;4.80;;
73170;SDS011;61381;50.118;19.962;2023-09-08T15:49:19;9.02;;;5.25;;
73170;SDS011;61381;50.118;19.962;2023-09-08T15:54:20;6.70;;;5.32;;
73170;SDS011;61381;50.118;19.962;2023-09-08T15:59:21;7.43;;;4.82;;
73170;SDS011;61381;50.118;19.962;2023-09-08T16:04:23;6.63;;;5.22;;
73170;SDS011;61381;50.118;19.962;2023-09-08T16:09:24;6.55;;;5.40;;
73170;SDS011;61381;50.118;19.962;2023-09-08T16:14:25;8.43;;;5.80;;
73170;SDS011;61381;50.118;19.962;2023-09-08T16:19:27;8.77;;;5.75;;
73170;SDS011;61381;50.118;19.962;2023-09-08T16:24:28;7.45;;;5.57;;
73170;SDS011;61381;50.118;19.962;2023-09-08T16:29:28;8.02;;;5.72;;
73170;SDS011;61381;50.118;19.962;2023-09-08T16:34:31;7.78;;;5.50;;
73170;SDS011;61381;50.118;19.962;2023-09-08T16:39:32;9.95;;;5.25;;
73170;SDS011;61381;50.118;19.962;2023-09-08T16:44:33;8.70;;;5.45;;
73170;SDS011;61381;50.118;19.962;2023-09-08T16:49:35;8.20;;;5.90;;
73170;SDS011;61381;50.118;19.962;2023-09-08T16:54:36;8.45;;;5.55;;
73170;SDS011;61381;50.118;19.962;2023-09-08T16:59:36;9.35;;;6.03;;
73170;SDS011;61381;50.118;19.962;2023-09-08T17:04:39;7.53;;;5.43;;
73170;SDS011;61381;50.118;19.962;2023-09-08T17:09:40;12.63;;;6.75;;
73170;SDS011;61381;50.118;19.962;2023-09-08T17:14:41;11.20;;;6.95;;
73170;SDS011;61381;50.118;19.962;2023-09-08T17:19:43;9.65;;;6.13;;
73170;SDS011;61381;50.118;19.962;2023-09-08T17:24:44;8.52;;;6.28;;
73170;SDS011;61381;50.118;19.962;2023-09-08T17:29:45;11.15;;;6.68;;
73170;SDS011;61381;50.118;19.962;2023-09-08T17:34:47;11.43;;;6.68;;
73170;SDS011;61381;50.118;19.962;2023-09-08T17:39:48;11.98;;;6.55;;
73170;SDS011;61381;50.118;19.962;2023-09-08T17:44:49;14.57;;;8.15;;
73170;SDS011;61381;50.118;19.962;2023-09-08T17:49:51;19.35;;;11.32;;
73170;SDS011;61381;50.118;19.962;2023-09-08T17:54:52;14.13;;;9.98;;
73170;SDS011;61381;50.118;19.962;2023-09-08T17:59:52;16.45;;;9.10;;
73170;SDS011;61381;50.118;19.962;2023-09-08T18:04:55;15.00;;;10.75;;
73170;SDS011;61381;50.118;19.962;2023-09-08T18:09:55;18.23;;;9.77;;
73170;SDS011;61381;50.118;19.962;2023-09-08T18:14:56;14.60;;;9.40;;
73170;SDS011;61381;50.118;19.962;2023-09-08T18:19:59;14.48;;;9.02;;
73170;SDS011;61381;50.118;19.962;2023-09-08T18:25:00;15.75;;;10.20;;
73170;SDS011;61381;50.118;19.962;2023-09-08T18:30:00;13.20;;;9.30;;
73170;SDS011;61381;50.118;19.962;2023-09-08T18:35:03;12.57;;;8.30;;
73170;SDS011;61381;50.118;19.962;2023-09-08T18:40:05;13.05;;;7.90;;
73170;SDS011;61381;50.118;19.962;2023-09-08T18:45:07;12.25;;;8.77;;
73170;SDS011;61381;50.118;19.962;2023-09-08T18:50:10;11.77;;;7.38;;
73170;SDS011;61381;50.118;19.962;2023-09-08T18:55:11;11.50;;;7.28;;
73170;SDS011;61381;50.118;19.962;2023-09-08T19:00:12;11.35;;;7.72;;
73170;SDS011;61381;50.118;19.962;2023-09-08T19:05:15;12.50;;;8.10;;
73170;SDS011;61381;50.118;19.962;2023-09-08T19:10:16;12.93;;;8.15;;
73170;SDS011;61381;50.118;19.962;2023-09-08T19:15:17;14.10;;;9.25;;
73170;SDS011;61381;50.118;19.962;2023-09-08T19:20:19;16.50;;;9.65;;
73170;SDS011;61381;50.118;19.962;2023-09-08T19:25:20;16.17;;;10.00;;
73170;SDS011;61381;50.118;19.962;2023-09-08T19:30:21;15.82;;;9.32;;
73170;SDS011;61381;50.118;19.962;2023-09-08T19:35:23;17.30;;;9.48;;
73170;SDS011;61381;50.118;19.962;2023-09-08T19:40:24;14.65;;;9.63;;
73170;SDS011;61381;50.118;19.962;2023-09-08T19:45:25;13.60;;;9.50;;
73170;SDS011;61381;50.118;19.962;2023-09-08T19:50:27;18.25;;;9.38;;
73170;SDS011;61381;50.118;19.962;2023-09-08T19:55:28;16.05;;;10.43;;
73170;SDS011;61381;50.118;19.962;2023-09-08T20:00:29;18.10;;;10.90;;
73170;SDS011;61381;50.118;19.962;2023-09-08T20:05:31;14.25;;;10.23;;
73170;SDS011;61381;50.118;19.962;2023-09-08T20:10:32;18.88;;;10.02;;
73170;SDS011;61381;50.118;19.962;2023-09-08T20:15:34;14.13;;;10.20;;
73170;SDS011;61381;50.118;19.962;2023-09-08T20:20:36;16.60;;;10.20;;
73170;SDS011;61381;50.118;19.962;2023-09-08T20:25:39;16.83;;;10.63;;
73170;SDS011;61381;50.118;19.962;2023-09-08T20:30:40;18.70;;;10.85;;
73170;SDS011;61381;50.118;19.962;2023-09-08T20:35:42;17.35;;;11.20;;
73170;SDS011;61381;50.118;19.962;2023-09-08T20:40:47;15.60;;;9.90;;
73170;SDS011;61381;50.118;19.962;2023-09-08T20:45:51;14.88;;;10.95;;
73170;SDS011;61381;50.118;19.962;2023-09-08T20:51:00;16.48;;;10.40;;
73170;SDS011;61381;50.118;19.962;2023-09-08T20:56:02;17.83;;;10.20;;
73170;SDS011;61381;50.118;19.962;2023-09-08T21:01:04;14.95;;;10.40;;
73170;SDS011;61381;50.118;19.962;2023-09-08T21:06:06;17.05;;;10.23;;
73170;SDS011;61381;50.118;19.962;2023-09-08T21:11:07;15.23;;;9.90;;
73170;SDS011;61381;50.118;19.962;2023-09-08T21:16:08;18.95;;;9.85;;
73170;SDS011;61381;50.118;19.962;2023-09-08T21:21:10;14.73;;;10.15;;
73170;SDS011;61381;50.118;19.962;2023-09-08T21:26:11;16.20;;;10.13;;
73170;SDS011;61381;50.118;19.962;2023-09-08T21:31:12;16.05;;;10.73;;
73170;SDS011;61381;50.118;19.962;2023-09-08T21:36:14;18.33;;;9.95;;
73170;SDS011;61381;50.118;19.962;2023-09-08T21:41:15;17.35;;;9.93;;
73170;SDS011;61381;50.118;19.962;2023-09-08T21:46:16;14.73;;;9.68;;
73170;SDS011;61381;50.118;19.962;2023-09-08T21:51:18;13.45;;;10.60;;
73170;SDS011;61381;50.118;19.962;2023-09-08T21:56:19;14.80;;;9.75;;
73170;SDS011;61381;50.118;19.962;2023-09-08T22:01:20;14.95;;;9.77;;
73170;SDS011;61381;50.118;19.962;2023-09-08T22:06:22;18.13;;;9.23;;
73170;SDS011;61381;50.118;19.962;2023-09-08T22:11:23;15.68;;;9.98;;
73170;SDS011;61381;50.118;19.962;2023-09-08T22:16:24;14.95;;;9.05;;
73170;SDS011;61381;50.118;19.962;2023-09-08T22:21:26;16.52;;;9.88;;
73170;SDS011;61381;50.118;19.962;2023-09-08T22:26:28;17.33;;;9.77;;
73170;SDS011;61381;50.118;19.962;2023-09-08T22:31:29;13.43;;;9.82;;
73170;SDS011;61381;50.118;19.962;2023-09-08T22:36:31;13.75;;;9.80;;
73170;SDS011;61381;50.118;19.962;2023-09-08T22:41:32;14.43;;;10.30;;
73170;SDS011;61381;50.118;19.962;2023-09-08T22:46:33;16.17;;;10.55;;
73170;SDS011;61381;50.118;19.962;2023-09-08T22:51:36;13.70;;;10.13;;
73170;SDS011;61381;50.118;19.962;2023-09-08T22:56:37;14.98;;;9.38;;
73170;SDS011;61381;50.118;19.962;2023-09-08T23:01:37;16.35;;;10.55;;
73170;SDS011;61381;50.118;19.962;2023-09-08T23:06:40;16.35;;;10.13;;
73170;SDS011;61381;50.118;19.962;2023-09-08T23:11:40;16.35;;;10.00;;
73170;SDS011;61381;50.118;19.962;2023-09-08T23:16:41;16.92;;;9.48;;
73170;SDS011;61381;50.118;19.962;2023-09-08T23:21:44;16.05;;;10.10;;
73170;SDS011;61381;50.118;19.962;2023-09-08T23:26:45;17.65;;;10.95;;
73170;SDS011;61381;50.118;19.962;2023-09-08T23:31:46;15.57;;;10.23;;
73170;SDS011;61381;50.118;19.962;2023-09-08T23:36:48;16.95;;;10.93;;
73170;SDS011;61381;50.118;19.962;2023-09-08T23:41:49;18.30;;;10.85;;
73170;SDS011;61381;50.118;19.962;2023-09-08T23:46:50;18.95;;;10.10;;
73170;SDS011;61381;50.118;19.962;2023-09-08T23:51:52;19.80;;;11.85;;
73170;SDS011;61381;50.118;19.962;2023-09-08T23:56:55;18.50;;;11.70;;
